Laredo, Texas
Current Conditions -  °F | °C
As of 10:56 PM on Friday 24 Oct 2014 (Local Time) from KLRD Reporting Station
Clear Clear  
Wind Chill: 75°   Ceiling: Unl
Heat Index: 75°   Visibility: 10mi
Dew Point: 60°   Wind: 9mph
Humidity: 60%   Direction: 140°SE
Pressure: 30.16"   Gusts: NA
Location:  27.53°N, 99.5°W
Report Text: KLRD 250356Z 14008KT 10SM CLR 24/16 A3016 RMK AO2 T02380155 SLP203
Loading
Personal Weather Stations






























Interactive Weather Map
Tropical Storm Tracking
New forecast layout! Learn more

10-Day Weather Forecast

Advertisements
Track Severe Weather on mobile